Leesburg, FL

4:49 PM EDT on July 04, 2015 (GMT -0400)
Cypress Creek | | Change Station
CLOSE
Current Station
Personal Weather Station
Location: Leesburg, FL
Elevation: 82 ft
Nearby Weather Stations

Elev 82 ft 28.77 °N, 81.88 °W | Updated 9 seconds ago

Clear
Clear
90.1 °F
Feels Like 95 °F
N
0.0
Wind Variable Wind from SE
Gusts 0.0 mph

Today
High -- | Low -- °F
--% Chance of Precip.
Yesterday
High -- | Low -- °F
Precip. -- in
6:33 AM 8:29 PM
Waning Gibbous, 90% visible
Pressure 30.07 in
Visibility 10.0 miles
Clouds Clear
Heat Index 95 °F
Dew Point 69 °F
Humidity 50%
Rainfall 0.00 in
Snow Depth Not available.
UV 8 out of 12
Pollen 2.90 out of 12
Air Quality Not available.
Flu Activity Not available.
SPECI KLEE 042046Z 18006KT 10SM VCTS CLR 34/19 A3007 RMK AO2 LTG DSNT ALQDS T03440194

More Conditions Fewer Conditions

Pressure 30.07 in
Visibility 10.0 miles
Clouds Clear
Heat Index 95 °F
Dew Point 69 °F
Humidity 50%
Rainfall 0.00 in
Snow Depth Not available.
UV 8 out of 12
Pollen 2.90 out of 12
Air Quality Not available.
Flu Activity Not available.
SPECI KLEE 042046Z 18006KT 10SM VCTS CLR 34/19 A3007 RMK AO2 LTG DSNT ALQDS T03440194

More Conditions Fewer Conditions

Nowcast | as of 3:24 PM EDT on July 4, 2015

Storms and associated outflow boundaries moving in from the west will collide with the East Coast sea breeze boundary through 7pm... resulting in some strong storms roughly from Volusia County southward across Metro Orlando and Lake County. At least a few of these storms will become quite strong and possibly severe...containing strong wind gusts of 50 to 60 mph...frequent lightning strikes...hail and very heavy rainfall. Whether you plan on attending any of the numerous outdoor public events planned for this afternoon and evening...or have your own outdoor activities or festivities planned...seek safe shelter indoors if skies begin to look threatening...or if you hear thunder. Additional details...including graphics are available online at: http://www.Srh.NOAA.Gov/mlb/blog.Php

×

10-Day Weather Forecast

×

Almanac

Astronomy

Jul. 04, 2015 Rise Set
Actual Time
Civil Twilight
Nautical Twilight
Astronomical Twilight
Moon
Length of Visible Light
Length of Day
Tomorrow will be .
, % of the Moon is Illuminated

Today's Extremes

State Highs State Lows

Community

WunderPhotos

Upload Photos

1,835,091 photos uploaded!

WunderBlogs® & News

Nearby

Air Quality

  Air Quality AQ Index Pollutant
Not available.

Snow Depth

Station Depth Elevation

Earthquake Activity

City Distance Mag. Time & Date
Minimum magnitude displayed is 2.5.

Coastal Water Temperatures

Place Temperature

Stations

Nearby Weather Stations

Station Location Temp. Windchill Dew Point Humidity Wind Precip. Elev Updated Type